Time;durP1;ratioP1;P1;durP2;ratioP2;P2;SDS_P1;SDS_P2;PMS_P1;PMS_P2;Temp;Humidity;BMP_temperature;BMP_pressure;BME280_temperature;BME280_humidity;BME280_pressure;Samples;Min_cycle;Max_cycle;Signal;HPM_P1;HPM_P2
2023/08/12 00:02:23;;;;;;;28.90;22.98;;;;;;;20.61;100.00;101643.72;5091278;28;20482;-66
2023/08/12 00:04:48;;;;;;;28.70;23.23;;;;;;;20.65;100.00;101641.84;5091408;28;20173;-66
2023/08/12 00:07:14;;;;;;;29.60;23.83;;;;;;;20.65;100.00;101641.84;5091202;28;20016;-66
2023/08/12 00:09:39;;;;;;;28.65;23.63;;;;;;;20.64;100.00;101636.59;5091155;28;20421;-66
2023/08/12 00:12:04;;;;;;;28.50;23.65;;;;;;;20.66;100.00;101640.69;5091121;28;20086;-66
2023/08/12 00:14:30;;;;;;;30.85;24.73;;;;;;;20.63;100.00;101646.19;5091096;28;20135;-66
2023/08/12 00:16:55;;;;;;;31.20;25.08;;;;;;;20.58;100.00;101641.66;5091242;28;20055;-66
2023/08/12 00:19:20;;;;;;;28.65;23.67;;;;;;;20.58;100.00;101650.88;5091125;28;20106;-66
2023/08/12 00:21:46;;;;;;;29.70;24.17;;;;;;;20.49;100.00;101647.38;5091062;28;20490;-66
2023/08/12 00:24:11;;;;;;;31.42;24.27;;;;;;;20.50;100.00;101629.34;5091146;28;20047;-66
2023/08/12 00:26:37;;;;;;;31.15;23.95;;;;;;;20.52;100.00;101629.81;5090980;28;20039;-66
2023/08/12 00:29:02;;;;;;;29.83;24.77;;;;;;;20.54;100.00;101635.09;5090861;28;20060;-66
2023/08/12 00:31:27;;;;;;;28.90;23.60;;;;;;;20.53;100.00;101625.00;5091046;28;20031;-66
2023/08/12 00:33:53;;;;;;;30.15;23.90;;;;;;;20.51;100.00;101631.00;5091097;28;20020;-66
2023/08/12 00:36:18;;;;;;;28.33;23.92;;;;;;;20.49;100.00;101626.91;5091002;28;20059;-66
2023/08/12 00:38:44;;;;;;;29.50;23.08;;;;;;;20.51;100.00;101610.50;5090954;28;20027;-66
2023/08/12 00:41:09;;;;;;;28.50;23.75;;;;;;;20.53;100.00;101613.75;5093260;28;20031;-66
2023/08/12 00:43:34;;;;;;;28.65;23.02;;;;;;;20.55;100.00;101611.44;5095100;28;20089;-66
2023/08/12 00:46:00;;;;;;;30.35;24.48;;;;;;;20.55;100.00;101600.19;5095093;28;20407;-65
2023/08/12 00:48:25;;;;;;;29.38;23.40;;;;;;;20.51;100.00;101588.00;5095005;28;20387;-66
2023/08/12 00:50:52;;;;;;;29.35;23.08;;;;;;;20.51;100.00;101604.88;5094989;28;20031;-66
2023/08/12 00:53:17;;;;;;;30.70;22.63;;;;;;;20.50;100.00;101597.63;5094839;28;20020;-66
2023/08/12 00:55:43;;;;;;;30.95;24.73;;;;;;;20.46;100.00;101603.13;5094909;28;20105;-66
2023/08/12 00:58:08;;;;;;;30.75;23.60;;;;;;;20.45;100.00;101601.50;5094858;28;20458;-66
2023/08/12 01:00:34;;;;;;;29.27;22.63;;;;;;;20.42;100.00;101596.59;5094816;28;20036;-66
2023/08/12 01:03:00;;;;;;;29.38;23.70;;;;;;;20.44;100.00;101597.06;5094721;28;20028;-66
2023/08/12 01:05:25;;;;;;;28.65;23.10;;;;;;;20.42;100.00;101599.41;5094710;28;20067;-66
2023/08/12 01:07:53;;;;;;;31.73;23.17;;;;;;;20.40;100.00;101594.13;5094724;28;20111;-66
2023/08/12 01:10:20;;;;;;;30.17;24.15;;;;;;;20.38;100.00;101588.06;5094461;28;20028;-66
2023/08/12 01:13:24;;;;;;;29.95;24.13;;;;;;;20.43;100.00;101589.81;5092994;28;20028;-66
2023/08/12 01:15:54;;;;;;;29.75;24.52;;;;;;;20.42;100.00;101585.34;5094679;28;20180;-66
2023/08/12 01:18:20;;;;;;;30.95;24.85;;;;;;;20.46;100.00;101585.47;5094533;28;20032;-66
2023/08/12 01:20:47;;;;;;;31.08;25.17;;;;;;;20.46;100.00;101582.66;5094168;28;20436;-66
2023/08/12 01:23:15;;;;;;;29.67;24.52;;;;;;;20.46;100.00;101575.03;5094231;28;20107;-66
2023/08/12 01:25:41;;;;;;;30.30;25.52;;;;;;;20.48;100.00;101569.06;5094231;28;20039;-66
2023/08/12 01:28:07;;;;;;;32.15;26.33;;;;;;;20.43;100.00;101561.69;5094310;28;20127;-66
2023/08/12 01:30:37;;;;;;;30.63;25.45;;;;;;;20.42;100.00;101557.25;5094101;28;20534;-66
2023/08/12 01:33:18;;;;;;;32.08;26.25;;;;;;;20.42;100.00;101563.69;5094168;28;20028;-67
2023/08/12 01:35:50;;;;;;;30.73;26.08;;;;;;;20.39;100.00;101558.78;5094204;28;20119;-67
2023/08/12 01:38:17;;;;;;;32.38;26.92;;;;;;;20.34;100.00;101544.97;5093861;28;20123;-66
2023/08/12 01:40:45;;;;;;;31.08;26.13;;;;;;;20.40;100.00;101545.56;5094025;28;20102;-66
2023/08/12 01:43:11;;;;;;;30.20;26.77;;;;;;;20.35;100.00;101552.25;5093867;28;20040;-66
2023/08/12 01:45:37;;;;;;;30.35;26.80;;;;;;;20.36;100.00;101542.63;5093895;28;20054;-66
2023/08/12 01:48:03;;;;;;;32.35;27.02;;;;;;;20.32;100.00;101540.91;5093767;28;20118;-66
2023/08/12 01:50:28;;;;;;;32.38;27.63;;;;;;;20.33;100.00;101545.34;5093768;28;20049;-66
2023/08/12 01:52:53;;;;;;;31.95;26.67;;;;;;;20.33;100.00;101548.97;5093006;28;20048;-66
2023/08/12 01:55:19;;;;;;;32.10;26.83;;;;;;;20.31;100.00;101547.69;5093805;28;20399;-66
2023/08/12 01:57:44;;;;;;;31.13;27.20;;;;;;;20.29;100.00;101547.22;5093790;28;20425;-66
2023/08/12 02:00:10;;;;;;;32.85;28.17;;;;;;;20.26;100.00;101548.75;5093672;28;20428;-66
2023/08/12 02:02:35;;;;;;;31.63;27.52;;;;;;;20.23;100.00;101539.06;5093525;28;20045;-66
2023/08/12 02:05:01;;;;;;;32.05;27.55;;;;;;;20.22;100.00;101533.78;5093565;28;20020;-66
2023/08/12 02:07:26;;;;;;;31.77;27.65;;;;;;;20.18;100.00;101532.88;5093498;28;20024;-66
2023/08/12 02:09:51;;;;;;;31.58;27.85;;;;;;;20.13;100.00;101533.09;5093513;28;20066;-66
2023/08/12 02:12:17;;;;;;;32.55;26.90;;;;;;;20.16;100.00;101535.22;5092010;28;20138;-66
2023/08/12 02:14:42;;;;;;;31.17;26.60;;;;;;;20.15;100.00;101534.41;5093285;28;20034;-66
2023/08/12 02:17:08;;;;;;;32.00;26.50;;;;;;;20.15;100.00;101525.16;5093081;28;20032;-66
2023/08/12 02:19:34;;;;;;;30.50;26.38;;;;;;;20.10;100.00;101529.84;5093398;28;20032;-66
2023/08/12 02:21:59;;;;;;;30.80;25.92;;;;;;;20.08;100.00;101522.94;5093130;28;20438;-66
2023/08/12 02:24:25;;;;;;;32.03;26.60;;;;;;;20.04;100.00;101530.44;5093126;28;20020;-66
2023/08/12 02:26:50;;;;;;;31.85;25.05;;;;;;;20.02;100.00;101521.56;5093151;28;20129;-66
2023/08/12 02:29:15;;;;;;;31.35;24.40;;;;;;;19.97;100.00;101525.44;5091398;28;20044;-66
2023/08/12 02:31:41;;;;;;;29.40;24.17;;;;;;;19.95;100.00;101520.16;5092950;28;20024;-66
2023/08/12 02:34:06;;;;;;;30.05;23.98;;;;;;;19.94;100.00;101520.50;5092900;28;20046;-66
2023/08/12 02:36:31;;;;;;;30.20;24.00;;;;;;;19.92;100.00;101522.88;5093035;28;20081;-66
2023/08/12 02:38:57;;;;;;;31.85;23.50;;;;;;;19.86;100.00;101511.06;5092731;28;20023;-66
2023/08/12 02:41:22;;;;;;;27.85;23.55;;;;;;;19.87;100.00;101512.72;5092841;28;20361;-66
2023/08/12 02:43:48;;;;;;;27.90;21.48;;;;;;;19.87;100.00;101509.91;5092773;28;20054;-66
2023/08/12 02:46:15;;;;;;;28.20;21.88;;;;;;;19.87;100.00;101512.72;5092803;28;20052;-66
2023/08/12 02:48:40;;;;;;;26.67;20.58;;;;;;;19.89;100.00;101507.53;5092909;28;20162;-66
2023/08/12 02:51:06;;;;;;;27.65;21.83;;;;;;;19.88;100.00;101505.91;5092665;28;20107;-66
2023/08/12 02:53:31;;;;;;;27.27;20.92;;;;;;;19.87;100.00;101495.88;5092548;28;20027;-66
2023/08/12 02:55:56;;;;;;;27.35;20.02;;;;;;;19.89;100.00;101492.69;5092495;28;20417;-66
2023/08/12 02:58:22;;;;;;;26.15;20.13;;;;;;;19.88;100.00;101493.84;5092555;28;20031;-66
2023/08/12 03:00:47;;;;;;;27.52;20.40;;;;;;;19.87;100.00;101489.41;5092528;28;20032;-66
2023/08/12 03:03:12;;;;;;;26.42;20.30;;;;;;;19.85;100.00;101483.28;5091410;28;20028;-66
2023/08/12 03:05:38;;;;;;;25.55;19.67;;;;;;;19.84;100.00;101473.25;5092448;28;20032;-66
2023/08/12 03:08:04;;;;;;;27.95;20.10;;;;;;;19.80;100.00;101476.78;5092365;28;20020;-66
2023/08/12 03:10:30;;;;;;;24.70;19.67;;;;;;;19.83;100.00;101477.25;5092294;28;20059;-66
2023/08/12 03:12:55;;;;;;;24.92;19.92;;;;;;;19.79;100.00;101479.91;5092244;28;20067;-66
2023/08/12 03:15:21;;;;;;;26.05;19.52;;;;;;;19.77;100.00;101476.66;5092259;28;20072;-65
2023/08/12 03:17:46;;;;;;;26.27;19.63;;;;;;;19.73;100.00;101468.13;5092214;28;20043;-66
2023/08/12 03:20:11;;;;;;;28.20;20.55;;;;;;;19.69;100.00;101470.00;5092177;28;20036;-66
2023/08/12 03:22:38;;;;;;;25.90;19.33;;;;;;;19.68;100.00;101462.75;5092199;28;20077;-66
2023/08/12 03:25:04;;;;;;;26.50;19.08;;;;;;;19.64;100.00;101461.84;5092110;28;20039;-66
2023/08/12 03:27:29;;;;;;;24.65;19.60;;;;;;;19.61;100.00;101463.34;5092006;28;20024;-66
2023/08/12 03:29:55;;;;;;;26.30;19.65;;;;;;;19.61;100.00;101454.91;5091637;28;20036;-66
2023/08/12 03:32:20;;;;;;;25.05;18.73;;;;;;;19.61;100.00;101459.72;5090577;28;20067;-66
2023/08/12 03:34:45;;;;;;;25.50;18.80;;;;;;;19.61;100.00;101451.31;5091784;28;20020;-66
2023/08/12 03:37:11;;;;;;;26.05;18.85;;;;;;;19.59;100.00;101451.69;5092040;28;20270;-66
2023/08/12 03:39:36;;;;;;;24.92;18.67;;;;;;;19.58;100.00;101449.19;5091890;28;20135;-66
2023/08/12 03:42:02;;;;;;;25.33;19.05;;;;;;;19.60;100.00;101444.06;5090471;28;20386;-66
2023/08/12 03:44:27;;;;;;;25.25;19.63;;;;;;;19.56;100.00;101435.53;5091817;28;20078;-67
2023/08/12 03:46:52;;;;;;;25.90;19.40;;;;;;;19.56;100.00;101427.13;5090277;28;20031;-66
2023/08/12 03:49:18;;;;;;;25.15;19.25;;;;;;;19.57;100.00;101431.56;5091846;28;20055;-66
2023/08/12 03:51:43;;;;;;;26.55;19.65;;;;;;;19.52;100.00;101430.97;5091784;28;20028;-66
2023/08/12 03:54:08;;;;;;;26.55;19.42;;;;;;;19.51;100.00;101432.94;5091531;28;20051;-66
2023/08/12 03:56:33;;;;;;;26.80;19.88;;;;;;;19.48;100.00;101442.09;5091573;28;20032;-66
2023/08/12 03:58:59;;;;;;;26.60;20.20;;;;;;;19.48;100.00;101442.09;5091510;28;20032;-66
2023/08/12 04:01:24;;;;;;;25.55;18.98;;;;;;;19.44;100.00;101441.16;5091373;28;20032;-66
2023/08/12 04:03:51;;;;;;;25.80;19.83;;;;;;;19.43;100.00;101431.09;5089977;28;20028;-65
2023/08/12 04:06:16;;;;;;;24.70;18.88;;;;;;;19.42;100.00;101421.03;5091407;28;20028;-66
2023/08/12 04:08:41;;;;;;;26.52;19.55;;;;;;;19.43;100.00;101429.13;5091415;28;20380;-66
2023/08/12 04:11:07;;;;;;;24.55;19.02;;;;;;;19.40;100.00;101429.03;5091357;28;20081;-66
2023/08/12 04:13:32;;;;;;;25.42;19.05;;;;;;;19.36;100.00;101414.06;5091287;28;20036;-66
2023/08/12 04:15:57;;;;;;;24.63;19.33;;;;;;;19.36;100.00;101426.09;5089545;28;20024;-66
2023/08/12 04:18:23;;;;;;;25.38;19.45;;;;;;;19.36;100.00;101426.09;5089945;28;20429;-66
2023/08/12 04:20:50;;;;;;;23.88;19.15;;;;;;;19.31;100.00;101432.78;5091084;28;20032;-66
2023/08/12 04:23:15;;;;;;;25.00;18.67;;;;;;;19.33;100.00;101424.00;5091230;28;20098;-66
2023/08/12 04:25:44;;;;;;;24.60;17.30;;;;;;;19.33;100.00;101419.19;5091240;28;20471;-66
2023/08/12 04:28:10;;;;;;;24.65;16.88;;;;;;;19.36;100.00;101411.25;5091107;28;20032;-66
2023/08/12 04:30:35;;;;;;;24.58;16.63;;;;;;;19.37;100.00;101399.66;5089692;28;20066;-66
2023/08/12 04:33:01;;;;;;;23.45;15.50;;;;;;;19.38;100.00;101397.69;5091058;28;20032;-66
2023/08/12 04:35:26;;;;;;;24.95;16.02;;;;;;;19.38;100.00;101397.69;5091167;28;20066;-65
2023/08/12 04:37:51;;;;;;;23.70;16.35;;;;;;;19.38;100.00;101395.69;5091015;28;20120;-66
2023/08/12 04:40:17;;;;;;;23.02;16.00;;;;;;;19.38;100.00;101406.09;5090941;28;20042;-66
2023/08/12 04:42:42;;;;;;;21.67;15.73;;;;;;;19.34;100.00;101406.00;5090871;28;20496;-65
2023/08/12 04:45:08;;;;;;;23.45;15.85;;;;;;;19.28;100.00;101405.41;5090929;28;20442;-65
2023/08/12 04:47:33;;;;;;;21.98;15.70;;;;;;;19.24;100.00;101401.66;5090786;28;20028;-66
2023/08/12 04:49:58;;;;;;;22.73;15.98;;;;;;;19.24;100.00;101406.47;5091159;28;20511;-66
2023/08/12 04:52:25;;;;;;;22.13;16.42;;;;;;;19.23;100.00;101402.03;5090752;28;20016;-65
2023/08/12 04:54:53;;;;;;;22.27;16.27;;;;;;;19.17;100.00;101385.47;5090717;28;20024;-66
2023/08/12 04:57:18;;;;;;;21.15;16.50;;;;;;;19.22;100.00;101398.44;5090880;28;20028;-66
2023/08/12 04:59:43;;;;;;;25.10;17.05;;;;;;;19.21;100.00;101393.97;5090765;28;20077;-65
2023/08/12 05:02:09;;;;;;;22.52;16.75;;;;;;;19.23;100.00;101386.00;5090827;28;20020;-66
2023/08/12 05:04:34;;;;;;;25.52;17.52;;;;;;;19.21;100.00;101379.13;5090613;28;20527;-66
2023/08/12 05:06:59;;;;;;;24.98;17.48;;;;;;;19.22;100.00;101383.56;5090675;28;20140;-66
2023/08/12 05:09:25;;;;;;;25.63;17.63;;;;;;;19.18;100.00;101377.84;5090591;28;20121;-66
2023/08/12 05:11:50;;;;;;;26.73;18.92;;;;;;;19.13;100.00;101381.72;5090679;28;20076;-66
2023/08/12 05:14:15;;;;;;;24.48;18.50;;;;;;;19.12;100.00;101382.06;5090582;28;20024;-66
2023/08/12 05:16:40;;;;;;;26.50;19.50;;;;;;;19.11;100.00;101384.03;5090658;28;20357;-66
2023/08/12 05:19:06;;;;;;;25.58;19.85;;;;;;;19.09;100.00;101382.75;5090689;28;20056;-66
2023/08/12 05:21:31;;;;;;;25.00;18.55;;;;;;;19.10;100.00;101382.41;5089306;28;20069;-66
2023/08/12 05:23:56;;;;;;;24.25;19.38;;;;;;;19.06;100.00;101373.06;5090462;28;20081;-66
2023/08/12 05:26:22;;;;;;;25.02;19.20;;;;;;;19.07;100.00;101369.09;5091362;28;20128;-66
2023/08/12 05:28:47;;;;;;;26.05;19.58;;;;;;;19.05;100.00;101365.84;5094083;28;20020;-66
2023/08/12 05:31:12;;;;;;;25.35;19.52;;;;;;;19.04;100.00;101367.00;5094291;28;20483;-66
2023/08/12 05:33:38;;;;;;;24.05;18.95;;;;;;;19.01;100.00;101379.75;5094099;28;20078;-66
2023/08/12 05:36:03;;;;;;;24.48;19.42;;;;;;;18.98;100.00;101374.81;5094190;28;20024;-66
2023/08/12 05:38:29;;;;;;;24.13;18.90;;;;;;;18.96;100.00;101373.56;5094187;28;20161;-66
2023/08/12 05:40:54;;;;;;;25.17;19.35;;;;;;;18.95;100.00;101358.69;5093909;28;20498;-66
2023/08/12 05:43:19;;;;;;;23.83;18.65;;;;;;;18.95;100.00;101358.69;5092458;28;20773;-67
2023/08/12 05:45:45;;;;;;;23.00;17.85;;;;;;;18.95;100.00;101364.31;5094082;28;20024;-67
2023/08/12 05:48:10;;;;;;;24.58;17.70;;;;;;;18.94;100.00;101367.47;5093932;28;20024;-68
2023/08/12 05:50:35;;;;;;;23.20;16.45;;;;;;;18.95;100.00;101369.91;5093949;28;20047;-68
2023/08/12 05:53:01;;;;;;;22.52;17.08;;;;;;;18.96;100.00;101370.75;5093650;28;20031;-67
2023/08/12 05:55:26;;;;;;;23.77;17.23;;;;;;;18.93;100.00;101371.44;5093483;28;20028;-68
2023/08/12 05:57:51;;;;;;;22.60;16.35;;;;;;;18.97;100.00;101373.19;5093319;28;20028;-67
2023/08/12 06:00:16;;;;;;;22.25;15.73;;;;;;;18.95;100.00;101360.69;5093478;28;20032;-67
2023/08/12 06:02:42;;;;;;;20.83;15.80;;;;;;;18.98;100.00;101365.63;5093362;28;20024;-68
2023/08/12 06:05:08;;;;;;;21.90;15.70;;;;;;;19.01;100.00;101359.28;5093706;28;20524;-67
2023/08/12 06:07:33;;;;;;;21.92;15.98;;;;;;;19.01;100.00;101351.69;5093730;28;20124;-68
2023/08/12 06:09:59;;;;;;;21.15;15.38;;;;;;;19.03;100.00;101354.16;5093746;28;20052;-68
2023/08/12 06:12:24;;;;;;;20.50;15.27;;;;;;;19.05;100.00;101349.00;5093599;28;20035;-68
2023/08/12 06:14:50;;;;;;;20.83;14.88;;;;;;;19.07;100.00;101355.09;5093611;28;20079;-68
2023/08/12 06:17:15;;;;;;;21.52;15.02;;;;;;;19.07;100.00;101343.88;5093273;28;20353;-68
2023/08/12 06:19:40;;;;;;;21.00;14.57;;;;;;;19.06;100.00;101342.22;5093492;28;20043;-68
2023/08/12 06:22:06;;;;;;;19.73;13.90;;;;;;;19.07;100.00;101348.66;5093403;28;20023;-68
2023/08/12 06:24:31;;;;;;;19.15;13.80;;;;;;;19.09;100.00;101346.31;5093359;28;20016;-68
2023/08/12 06:26:56;;;;;;;20.52;14.32;;;;;;;19.11;100.00;101346.78;5093223;28;20085;-68
2023/08/12 06:29:22;;;;;;;20.95;14.48;;;;;;;19.10;100.00;101340.34;5092998;28;20078;-68
2023/08/12 06:31:47;;;;;;;19.63;13.38;;;;;;;19.09;100.00;101341.50;5093297;28;20058;-68
2023/08/12 06:34:12;;;;;;;20.27;14.00;;;;;;;19.12;100.00;101332.41;5093145;28;20078;-68
2023/08/12 06:36:38;;;;;;;19.80;14.05;;;;;;;19.12;100.00;101335.22;5093156;28;20111;-68
2023/08/12 06:39:03;;;;;;;19.58;13.63;;;;;;;19.13;100.00;101334.03;5093353;28;20510;-67
2023/08/12 06:41:29;;;;;;;20.67;13.52;;;;;;;19.17;100.00;101326.56;5093189;28;20444;-68
2023/08/12 06:43:54;;;;;;;19.33;13.40;;;;;;;19.18;100.00;101333.78;5093216;28;20093;-68
2023/08/12 06:46:19;;;;;;;19.80;13.70;;;;;;;19.17;100.00;101326.56;5093249;28;20390;-68
2023/08/12 06:48:44;;;;;;;18.90;13.52;;;;;;;19.17;100.00;101326.56;5093197;28;20039;-68
2023/08/12 06:51:10;;;;;;;19.15;13.23;;;;;;;19.21;100.00;101315.44;5092990;28;20028;-68
2023/08/12 06:53:37;;;;;;;19.50;13.38;;;;;;;19.29;100.00;101322.06;5092940;28;20032;-68
2023/08/12 06:56:02;;;;;;;19.67;13.68;;;;;;;19.30;100.00;101316.13;5093256;28;20024;-68
2023/08/12 06:58:28;;;;;;;19.02;12.88;;;;;;;19.38;100.00;101313.53;5092981;28;20036;-68
2023/08/12 07:00:53;;;;;;;18.50;13.43;;;;;;;19.37;100.00;101312.69;5092852;28;20032;-68
2023/08/12 07:03:19;;;;;;;19.27;12.85;;;;;;;19.40;100.00;101312.00;5092971;28;20063;-68
2023/08/12 07:05:44;;;;;;;19.88;13.55;;;;;;;19.44;100.00;101307.31;5092875;28;20078;-68
2023/08/12 07:08:10;;;;;;;18.10;12.90;;;;;;;19.49;100.00;101309.84;5092847;28;20490;-68
2023/08/12 07:10:38;;;;;;;19.23;12.63;;;;;;;19.56;100.00;101300.00;5092592;28;20036;-69
2023/08/12 07:13:03;;;;;;;17.90;12.20;;;;;;;19.60;100.00;101304.53;5092550;28;20035;-68
2023/08/12 07:15:29;;;;;;;17.60;11.98;;;;;;;19.63;100.00;101297.44;5092426;28;20032;-68
2023/08/12 07:17:54;;;;;;;18.50;11.80;;;;;;;19.72;100.00;101302.88;5092169;28;20439;-68
2023/08/12 07:20:19;;;;;;;17.88;12.50;;;;;;;19.74;100.00;101301.31;5092224;28;20032;-68
2023/08/12 07:22:45;;;;;;;17.58;12.60;;;;;;;19.76;100.00;101298.97;5092058;28;20020;-68
2023/08/12 07:25:10;;;;;;;17.20;12.18;;;;;;;19.79;100.00;101292.66;5092143;28;20016;-68
2023/08/12 07:27:35;;;;;;;18.42;13.25;;;;;;;19.83;100.00;101297.56;5091740;28;20032;-68
2023/08/12 07:30:01;;;;;;;17.60;12.60;;;;;;;19.80;100.00;101297.09;5092057;28;20487;-68
2023/08/12 07:32:26;;;;;;;17.70;12.35;;;;;;;19.78;100.00;101298.66;5091896;28;20104;-68
2023/08/12 07:34:53;;;;;;;18.05;12.95;;;;;;;19.74;100.00;101297.72;5091642;28;20044;-68
2023/08/12 07:37:18;;;;;;;18.73;12.80;;;;;;;19.76;100.00;101293.38;5091849;28;20081;-68
2023/08/12 07:39:44;;;;;;;18.05;13.10;;;;;;;19.76;100.00;101304.59;5091839;28;20036;-68
2023/08/12 07:42:09;;;;;;;17.52;12.63;;;;;;;19.76;100.00;101301.00;5090353;28;20066;-68
2023/08/12 07:44:34;;;;;;;18.42;13.35;;;;;;;19.74;100.00;101292.09;5091847;28;20492;-68
2023/08/12 07:47:00;;;;;;;18.38;13.43;;;;;;;19.71;100.00;101301.22;5091789;28;20035;-67
2023/08/12 07:49:25;;;;;;;17.88;12.77;;;;;;;19.72;100.00;101305.66;5089860;28;20020;-68
2023/08/12 07:51:50;;;;;;;18.63;13.45;;;;;;;19.71;100.00;101285.22;5091745;28;20032;-67
2023/08/12 07:54:15;;;;;;;18.50;14.10;;;;;;;19.76;100.00;101290.56;5091602;28;20077;-68
2023/08/12 07:56:41;;;;;;;18.73;13.30;;;;;;;19.84;100.00;101290.78;5091679;28;20082;-68
2023/08/12 07:59:06;;;;;;;18.88;13.50;;;;;;;19.85;100.00;101286.78;5091757;28;20035;-68
2023/08/12 08:01:31;;;;;;;18.83;14.05;;;;;;;19.90;100.00;101292.19;5091689;28;20024;-68
2023/08/12 08:03:57;;;;;;;18.98;13.45;;;;;;;19.87;100.00;101290.06;5091712;28;20024;-68
2023/08/12 08:06:23;;;;;;;17.90;13.00;;;;;;;19.90;100.00;101284.56;5091545;28;20324;-68
2023/08/12 08:08:49;;;;;;;17.55;12.65;;;;;;;19.95;100.00;101294.72;5091621;28;20058;-68
2023/08/12 08:11:14;;;;;;;17.92;13.38;;;;;;;20.00;100.00;101297.25;5091437;28;20067;-68
2023/08/12 08:13:39;;;;;;;19.13;14.10;;;;;;;20.07;100.00;101302.25;5091293;28;20032;-68
2023/08/12 08:16:05;;;;;;;18.13;13.68;;;;;;;20.14;100.00;101312.84;5091283;28;20028;-67
2023/08/12 08:18:30;;;;;;;17.55;12.07;;;;;;;20.22;100.00;101307.06;5091274;28;20020;-68
2023/08/12 08:20:56;;;;;;;17.27;12.20;;;;;;;20.23;100.00;101308.69;5091342;28;20103;-68
2023/08/12 08:23:21;;;;;;;17.70;12.60;;;;;;;20.25;100.00;101314.78;5091166;28;20439;-67
2023/08/12 08:25:46;;;;;;;17.40;12.90;;;;;;;20.24;100.00;101312.31;5091126;28;20027;-67
2023/08/12 08:28:12;;;;;;;18.30;13.13;;;;;;;20.29;100.00;101312.06;5091122;28;20061;-67
2023/08/12 08:30:37;;;;;;;17.10;12.02;;;;;;;20.36;100.00;101312.25;5090825;28;20388;-69
2023/08/12 08:33:03;;;;;;;17.27;12.30;;;;;;;20.42;100.00;101321.22;5091020;28;20067;-68
2023/08/12 08:35:28;;;;;;;17.60;12.23;;;;;;;20.46;100.00;101316.47;5090900;28;20024;-67
2023/08/12 08:37:54;;;;;;;17.27;11.93;;;;;;;20.51;100.00;101313.41;5090848;28;20513;-68
2023/08/12 08:40:19;;;;;;;17.02;12.00;;;;;;;20.56;100.00;101315.94;5090872;28;20036;-68
2023/08/12 08:42:51;;;;;;;16.48;11.63;;;;;;;20.54;100.00;101318.31;5090828;28;20027;-68
2023/08/12 08:45:17;;;;;;;16.23;11.60;;;;;;;20.58;100.00;101327.63;5104959;28;20028;-67
2023/08/12 08:47:44;;;;;;;17.10;11.85;;;;;;;20.53;100.00;101333.56;5111205;28;20031;-67
2023/08/12 08:50:10;;;;;;;17.63;13.15;;;;;;;20.55;100.00;101333.19;5111245;28;20148;-68
2023/08/12 08:52:37;;;;;;;17.95;13.23;;;;;;;20.50;100.00;101342.69;5111225;28;20026;-68
2023/08/12 08:55:04;;;;;;;18.15;13.82;;;;;;;20.50;100.00;101336.28;5111066;28;20035;-67
2023/08/12 08:57:29;;;;;;;19.08;13.80;;;;;;;20.52;100.00;101345.13;5111291;28;20028;-68
2023/08/12 08:59:55;;;;;;;18.10;13.65;;;;;;;20.55;100.00;101345.22;5111264;28;20092;-68
2023/08/12 09:02:21;;;;;;;19.80;14.00;;;;;;;20.62;100.00;101346.59;5113669;28;20019;-68
2023/08/12 09:04:47;;;;;;;17.98;13.48;;;;;;;20.61;100.00;101344.97;5115260;28;20106;-68
2023/08/12 09:07:16;;;;;;;18.13;13.38;;;;;;;20.58;100.00;101350.13;5115068;28;20124;-67
2023/08/12 09:09:47;;;;;;;18.50;13.88;;;;;;;20.47;100.00;101348.22;5115085;28;20027;-68
2023/08/12 09:12:15;;;;;;;19.00;14.23;;;;;;;20.38;100.00;101345.59;5115332;28;20365;-68
2023/08/12 09:14:40;;;;;;;18.30;13.45;;;;;;;20.36;100.00;101347.94;5114909;28;20080;-68
2023/08/12 09:17:07;;;;;;;18.42;13.25;;;;;;;20.37;100.00;101353.22;5113593;28;20429;-68
2023/08/12 09:19:32;;;;;;;18.90;13.63;;;;;;;20.42;100.00;101352.13;5114871;28;20035;-68
2023/08/12 09:21:58;;;;;;;18.95;13.48;;;;;;;20.57;100.00;101359.72;5114803;28;20031;-67
2023/08/12 09:24:27;;;;;;;18.92;13.32;;;;;;;20.65;100.00;101366.38;5114629;28;20236;-68
2023/08/12 09:26:56;;;;;;;18.60;13.13;;;;;;;20.67;100.00;101364.00;5114749;28;20023;-68
2023/08/12 09:29:35;;;;;;;18.20;13.00;;;;;;;20.73;100.00;101373.00;5114561;28;20054;-68
2023/08/12 09:32:17;;;;;;;18.42;12.65;;;;;;;20.76;100.00;101379.91;5114821;28;20027;-69
2023/08/12 09:34:47;;;;;;;16.42;11.70;;;;;;;20.66;100.00;101387.66;5114432;28;20509;-68
2023/08/12 09:37:13;;;;;;;17.17;12.25;;;;;;;20.64;100.00;101381.59;5114453;28;20024;-68
2023/08/12 09:39:39;;;;;;;17.17;12.05;;;;;;;20.82;100.00;101384.06;5114477;27;20024;-67
2023/08/12 09:42:05;;;;;;;16.80;11.95;;;;;;;20.93;100.00;101379.53;5114288;28;20506;-67
2023/08/12 09:44:30;;;;;;;15.05;10.98;;;;;;;21.01;100.00;101380.53;5114399;28;20031;-67
2023/08/12 09:46:58;;;;;;;16.17;10.82;;;;;;;21.11;100.00;101374.31;5114108;28;20038;-69
2023/08/12 09:49:24;;;;;;;15.45;10.82;;;;;;;21.26;100.00;101385.91;5114181;28;20028;-68
2023/08/12 09:51:51;;;;;;;15.07;10.70;;;;;;;21.31;100.00;101378.00;5114290;28;20039;-68
2023/08/12 09:54:19;;;;;;;14.80;10.60;;;;;;;21.37;100.00;101383.31;5113946;28;20450;-67
2023/08/12 09:56:48;;;;;;;15.25;10.80;;;;;;;21.42;100.00;101377.44;5114104;28;20099;-68
2023/08/12 09:59:19;;;;;;;16.05;11.40;;;;;;;21.40;100.00;101374.16;5113932;28;20030;-68
2023/08/12 10:01:45;;;;;;;16.85;11.45;;;;;;;21.57;100.00;101393.44;5114114;28;20035;-68
2023/08/12 10:04:13;;;;;;;15.80;11.23;;;;;;;21.62;100.00;101395.16;5113877;28;20028;-68
2023/08/12 10:06:40;;;;;;;16.42;11.30;;;;;;;21.62;100.00;101395.16;5114124;28;20050;-67
2023/08/12 10:09:08;;;;;;;17.17;11.88;;;;;;;21.64;100.00;101399.25;5113633;28;20111;-68
2023/08/12 10:11:34;;;;;;;15.77;10.93;;;;;;;21.61;100.00;101402.81;5113814;28;20034;-68
2023/08/12 10:14:01;;;;;;;17.38;11.32;;;;;;;21.54;100.00;101404.63;5113086;28;20023;-67
2023/08/12 10:16:29;;;;;;;16.98;11.43;;;;;;;21.41;100.00;101399.09;5113428;28;20034;-69
2023/08/12 10:18:57;;;;;;;18.42;11.68;;;;;;;21.33;100.00;101406.59;5113564;28;20027;-68
2023/08/12 10:21:23;;;;;;;16.85;11.73;;;;;;;21.29;100.00;101416.94;5113718;28;20042;-67
2023/08/12 10:23:50;;;;;;;17.27;11.88;;;;;;;21.24;100.00;101414.41;5113964;28;20027;-67
2023/08/12 10:26:17;;;;;;;17.33;11.48;;;;;;;21.33;100.00;101414.19;5113569;28;20022;-68
2023/08/12 10:28:43;;;;;;;17.33;11.52;;;;;;;21.55;100.00;101412.69;5113049;28;20084;-68
2023/08/12 10:31:10;;;;;;;17.15;11.70;;;;;;;21.71;100.00;101415.47;5113457;28;20433;-69
2023/08/12 10:33:37;;;;;;;17.35;11.90;;;;;;;21.71;100.00;101409.03;5113122;28;20035;-68
2023/08/12 10:36:03;;;;;;;18.83;11.82;;;;;;;21.74;100.00;101411.94;5113147;28;20024;-69
2023/08/12 10:38:28;;;;;;;17.17;11.40;;;;;;;21.77;100.00;101404.75;5112895;28;20100;-68
2023/08/12 10:41:15;;;;;;;15.02;10.30;;;;;;;21.75;100.00;101405.13;5113002;28;20115;-67
2023/08/12 10:43:53;;;;;;;16.83;10.63;;;;;;;21.75;100.00;101402.31;5113013;28;20536;-68
2023/08/12 10:46:23;;;;;;;15.85;10.60;;;;;;;21.70;100.00;101401.78;5112944;28;20031;-68
2023/08/12 10:49:06;;;;;;;15.95;10.15;;;;;;;21.72;100.00;101407.88;5111622;28;20031;-69
2023/08/12 10:51:58;;;;;;;18.52;10.52;;;;;;;21.77;100.00;101411.19;5112965;28;20020;-68
2023/08/12 10:54:31;;;;;;;15.40;10.25;;;;;;;21.88;100.00;101405.78;5108772;28;20039;-68
2023/08/12 10:57:05;;;;;;;;;;;;;;;22.16;100.00;101427.28;5113143;28;20032;-68
2023/08/12 10:59:46;;;;;;;15.65;9.30;;;;;;;21.95;96.29;101419.22;5111262;28;20375;-68